sensor_id;sensor_type;location;lat;lon;timestamp;pressure;altitude;pressure_sealevel;temperature;humidity
39223;BME280;24936;46.328;11.026;2023-05-10T00:02:23;94006.50;;;9.64;100.00
39223;BME280;24936;46.328;11.026;2023-05-10T00:04:49;94006.53;;;9.54;100.00
39223;BME280;24936;46.328;11.026;2023-05-10T00:07:15;94000.59;;;9.52;100.00
39223;BME280;24936;46.328;11.026;2023-05-10T00:09:42;93997.69;;;9.55;100.00
39223;BME280;24936;46.328;11.026;2023-05-10T00:12:08;93996.44;;;9.59;100.00
39223;BME280;24936;46.328;11.026;2023-05-10T00:14:34;93993.63;;;9.71;100.00
39223;BME280;24936;46.328;11.026;2023-05-10T00:17:00;93999.31;;;9.66;100.00
39223;BME280;24936;46.328;11.026;2023-05-10T00:19:25;93994.81;;;9.76;100.00
39223;BME280;24936;46.328;11.026;2023-05-10T00:21:51;93990.25;;;9.78;100.00
39223;BME280;24936;46.328;11.026;2023-05-10T00:24:16;93990.00;;;9.72;100.00
39223;BME280;24936;46.328;11.026;2023-05-10T00:26:41;93990.25;;;9.78;100.00
39223;BME280;24936;46.328;11.026;2023-05-10T00:29:07;93987.34;;;9.54;100.00
39223;BME280;24936;46.328;11.026;2023-05-10T00:31:33;93982.38;;;9.51;100.00
39223;BME280;24936;46.328;11.026;2023-05-10T00:33:58;93988.00;;;9.56;100.00
39223;BME280;24936;46.328;11.026;2023-05-10T00:36:24;93976.50;;;9.57;100.00
39223;BME280;24936;46.328;11.026;2023-05-10T00:38:49;93977.56;;;9.74;100.00
39223;BME280;24936;46.328;11.026;2023-05-10T00:41:15;93979.47;;;9.54;100.00
39223;BME280;24936;46.328;11.026;2023-05-10T00:43:40;93980.03;;;9.47;100.00
39223;BME280;24936;46.328;11.026;2023-05-10T00:46:06;93978.78;;;9.52;100.00
39223;BME280;24936;46.328;11.026;2023-05-10T00:48:32;93975.94;;;9.63;100.00
39223;BME280;24936;46.328;11.026;2023-05-10T00:50:58;93974.84;;;9.56;100.00
39223;BME280;24936;46.328;11.026;2023-05-10T00:53:24;93977.13;;;9.78;100.00
39223;BME280;24936;46.328;11.026;2023-05-10T00:55:50;93974.69;;;9.67;100.00
39223;BME280;24936;46.328;11.026;2023-05-10T00:58:16;93971.25;;;9.57;100.00
39223;BME280;24936;46.328;11.026;2023-05-10T01:00:42;93975.00;;;9.54;100.00
39223;BME280;24936;46.328;11.026;2023-05-10T01:03:11;93967.84;;;9.46;100.00
39223;BME280;24936;46.328;11.026;2023-05-10T01:05:37;93966.78;;;9.39;100.00
39223;BME280;24936;46.328;11.026;2023-05-10T01:08:03;93965.63;;;9.52;100.00
39223;BME280;24936;46.328;11.026;2023-05-10T01:10:29;93965.16;;;9.66;100.00
39223;BME280;24936;46.328;11.026;2023-05-10T01:12:55;93962.69;;;9.55;100.00
39223;BME280;24936;46.328;11.026;2023-05-10T01:15:21;93962.59;;;9.46;100.00
39223;BME280;24936;46.328;11.026;2023-05-10T01:17:47;93959.75;;;9.30;100.00
39223;BME280;24936;46.328;11.026;2023-05-10T01:20:14;93956.28;;;9.39;100.00
39223;BME280;24936;46.328;11.026;2023-05-10T01:25:43;93957.72;;;9.24;100.00
39223;BME280;24936;46.328;11.026;2023-05-10T01:31:15;93958.78;;;9.31;100.00
39223;BME280;24936;46.328;11.026;2023-05-10T01:37:02;93945.31;;;9.54;100.00
39223;BME280;24936;46.328;11.026;2023-05-10T01:39:44;93943.44;;;9.36;100.00
39223;BME280;24936;46.328;11.026;2023-05-10T01:42:15;93946.81;;;9.18;100.00
39223;BME280;24936;46.328;11.026;2023-05-10T01:47:34;93947.78;;;9.17;100.00
39223;BME280;24936;46.328;11.026;2023-05-10T01:50:02;93949.44;;;9.18;100.00
39223;BME280;24936;46.328;11.026;2023-05-10T01:52:34;93949.72;;;9.15;100.00
39223;BME280;24936;46.328;11.026;2023-05-10T01:55:06;93951.97;;;9.10;100.00
39223;BME280;24936;46.328;11.026;2023-05-10T01:57:39;93950.31;;;9.09;100.00
39223;BME280;24936;46.328;11.026;2023-05-10T02:00:08;93953.91;;;9.08;100.00
39223;BME280;24936;46.328;11.026;2023-05-10T02:02:39;93950.03;;;9.12;100.00
39223;BME280;24936;46.328;11.026;2023-05-10T02:05:08;93949.44;;;9.18;100.00
39223;BME280;24936;46.328;11.026;2023-05-10T02:07:36;93954.44;;;9.12;100.00
39223;BME280;24936;46.328;11.026;2023-05-10T02:10:04;93944.50;;;9.06;100.00
39223;BME280;24936;46.328;11.026;2023-05-10T02:12:31;93953.13;;;8.98;100.00
39223;BME280;24936;46.328;11.026;2023-05-10T02:14:59;93945.66;;;8.93;100.00
39223;BME280;24936;46.328;11.026;2023-05-10T02:17:27;93948.69;;;8.88;100.00
39223;BME280;24936;46.328;11.026;2023-05-10T02:19:55;93944.84;;;8.93;100.00
39223;BME280;24936;46.328;11.026;2023-05-10T02:22:22;93943.88;;;8.94;100.00
39223;BME280;24936;46.328;11.026;2023-05-10T02:24:49;93945.97;;;8.90;100.00
39223;BME280;24936;46.328;11.026;2023-05-10T02:27:15;93943.88;;;8.94;100.00
39223;BME280;24936;46.328;11.026;2023-05-10T02:29:41;93948.84;;;8.97;100.00
39223;BME280;24936;46.328;11.026;2023-05-10T02:32:08;93944.25;;;8.99;100.00
39223;BME280;24936;46.328;11.026;2023-05-10T02:34:35;93947.88;;;8.98;100.00
39223;BME280;24936;46.328;11.026;2023-05-10T02:37:01;93947.72;;;8.99;100.00
39223;BME280;24936;46.328;11.026;2023-05-10T02:39:27;93950.19;;;9.01;100.00
39223;BME280;24936;46.328;11.026;2023-05-10T02:41:55;93936.53;;;8.97;100.00
39223;BME280;24936;46.328;11.026;2023-05-10T02:44:22;93934.44;;;9.01;100.00
39223;BME280;24936;46.328;11.026;2023-05-10T02:46:48;93933.47;;;9.02;100.00
39223;BME280;24936;46.328;11.026;2023-05-10T02:49:32;93935.41;;;9.00;100.00
39223;BME280;24936;46.328;11.026;2023-05-10T02:52:00;93939.59;;;8.93;100.00
39223;BME280;24936;46.328;11.026;2023-05-10T02:54:31;93932.69;;;8.92;100.00
39223;BME280;24936;46.328;11.026;2023-05-10T02:56:59;93941.09;;;8.85;100.00
39223;BME280;24936;46.328;11.026;2023-05-10T02:59:26;93936.97;;;8.83;100.00
39223;BME280;24936;46.328;11.026;2023-05-10T03:01:52;93926.06;;;8.78;100.00
39223;BME280;24936;46.328;11.026;2023-05-10T03:04:17;93933.53;;;8.82;100.00
39223;BME280;24936;46.328;11.026;2023-05-10T03:06:43;93926.66;;;8.71;100.00
39223;BME280;24936;46.328;11.026;2023-05-10T03:09:09;93933.56;;;8.72;100.00
39223;BME280;24936;46.328;11.026;2023-05-10T03:17:11;93925.53;;;8.74;100.00
39223;BME280;24936;46.328;11.026;2023-05-10T03:19:48;93926.41;;;8.65;100.00
39223;BME280;24936;46.328;11.026;2023-05-10T03:22:25;93925.59;;;8.54;100.00
39223;BME280;24936;46.328;11.026;2023-05-10T03:24:55;93925.59;;;8.54;100.00
39223;BME280;24936;46.328;11.026;2023-05-10T03:27:23;93919.56;;;8.92;100.00
39223;BME280;24936;46.328;11.026;2023-05-10T03:29:51;93919.72;;;8.80;100.00
39223;BME280;24936;46.328;11.026;2023-05-10T03:32:17;93925.53;;;8.74;100.00
39223;BME280;24936;46.328;11.026;2023-05-10T03:34:43;93918.63;;;8.73;100.00
39223;BME280;24936;46.328;11.026;2023-05-10T03:37:09;93923.88;;;8.73;100.00
39223;BME280;24936;46.328;11.026;2023-05-10T03:39:34;93918.34;;;8.76;100.00
39223;BME280;24936;46.328;11.026;2023-05-10T03:42:00;93914.22;;;8.74;100.00
39223;BME280;24936;46.328;11.026;2023-05-10T03:44:26;93918.34;;;8.76;100.00
39223;BME280;24936;46.328;11.026;2023-05-10T03:46:51;93920.88;;;8.68;100.00
39223;BME280;24936;46.328;11.026;2023-05-10T03:49:17;93916.88;;;8.64;100.00
39223;BME280;24936;46.328;11.026;2023-05-10T03:51:42;93917.94;;;8.81;100.00
39223;BME280;24936;46.328;11.026;2023-05-10T03:54:07;93920.50;;;9.00;100.00
39223;BME280;24936;46.328;11.026;2023-05-10T03:56:33;93919.00;;;8.98;100.00
39223;BME280;24936;46.328;11.026;2023-05-10T03:58:58;93920.16;;;8.76;100.00
39223;BME280;24936;46.328;11.026;2023-05-10T04:01:24;93919.78;;;9.08;100.00
39223;BME280;24936;46.328;11.026;2023-05-10T04:03:49;93925.50;;;8.94;100.00
39223;BME280;24936;46.328;11.026;2023-05-10T04:06:15;93919.28;;;8.95;100.00
39223;BME280;24936;46.328;11.026;2023-05-10T04:08:40;93926.38;;;8.75;100.00
39223;BME280;24936;46.328;11.026;2023-05-10T04:11:07;93925.44;;;8.66;100.00
39223;BME280;24936;46.328;11.026;2023-05-10T04:13:33;93919.66;;;8.62;100.00
39223;BME280;24936;46.328;11.026;2023-05-10T04:15:58;93924.75;;;8.64;100.00
39223;BME280;24936;46.328;11.026;2023-05-10T04:18:24;93926.41;;;8.65;100.00
39223;BME280;24936;46.328;11.026;2023-05-10T04:20:50;93924.47;;;8.57;100.00
39223;BME280;24936;46.328;11.026;2023-05-10T04:23:15;93928.91;;;8.56;100.00
39223;BME280;24936;46.328;11.026;2023-05-10T04:25:41;93933.56;;;8.72;100.00
39223;BME280;24936;46.328;11.026;2023-05-10T04:28:07;93928.06;;;8.66;100.00
39223;BME280;24936;46.328;11.026;2023-05-10T04:30:33;93925.28;;;8.67;100.00
39223;BME280;24936;46.328;11.026;2023-05-10T04:32:58;93930.69;;;8.66;100.00
39223;BME280;24936;46.328;11.026;2023-05-10T04:35:24;93929.69;;;8.77;100.00
39223;BME280;24936;46.328;11.026;2023-05-10T04:37:49;93936.84;;;8.84;100.00
39223;BME280;24936;46.328;11.026;2023-05-10T04:40:15;93927.47;;;8.72;100.00
39223;BME280;24936;46.328;11.026;2023-05-10T04:42:40;93931.63;;;8.65;100.00
39223;BME280;24936;46.328;11.026;2023-05-10T04:45:09;93938.81;;;8.63;100.00
39223;BME280;24936;46.328;11.026;2023-05-10T04:47:35;93929.97;;;8.64;100.00
39223;BME280;24936;46.328;11.026;2023-05-10T04:50:02;93939.50;;;8.65;100.00
39223;BME280;24936;46.328;11.026;2023-05-10T04:52:28;93938.28;;;8.69;100.00
39223;BME280;24936;46.328;11.026;2023-05-10T04:54:53;93942.91;;;8.85;100.00
39223;BME280;24936;46.328;11.026;2023-05-10T04:57:19;93940.72;;;8.80;100.00
39223;BME280;24936;46.328;11.026;2023-05-10T04:59:44;93939.78;;;8.62;100.00
39223;BME280;24936;46.328;11.026;2023-05-10T05:02:10;93941.19;;;8.56;100.00
39223;BME280;24936;46.328;11.026;2023-05-10T05:04:35;93948.78;;;8.49;100.00
39223;BME280;24936;46.328;11.026;2023-05-10T05:07:01;93943.78;;;8.66;100.00
39223;BME280;24936;46.328;11.026;2023-05-10T05:09:26;93942.97;;;8.55;100.00
39223;BME280;24936;46.328;11.026;2023-05-10T05:11:52;93945.88;;;8.52;100.00
39223;BME280;24936;46.328;11.026;2023-05-10T05:14:17;93944.34;;;8.50;100.00
39223;BME280;24936;46.328;11.026;2023-05-10T05:16:43;93948.78;;;8.49;100.00
39223;BME280;24936;46.328;11.026;2023-05-10T05:19:08;93952.38;;;8.48;100.00
39223;BME280;24936;46.328;11.026;2023-05-10T05:21:34;93946.41;;;8.46;100.00
39223;BME280;24936;46.328;11.026;2023-05-10T05:23:59;93942.28;;;8.44;100.00
39223;BME280;24936;46.328;11.026;2023-05-10T05:26:26;93948.91;;;8.38;100.00
39223;BME280;24936;46.328;11.026;2023-05-10T05:28:51;93956.22;;;8.34;100.00
39223;BME280;24936;46.328;11.026;2023-05-10T05:31:19;93952.75;;;8.34;100.00
39223;BME280;24936;46.328;11.026;2023-05-10T05:33:45;93950.81;;;8.36;100.00
39223;BME280;24936;46.328;11.026;2023-05-10T05:36:10;93949.88;;;8.37;100.00
39223;BME280;24936;46.328;11.026;2023-05-10T05:38:36;93958.16;;;8.42;100.00
39223;BME280;24936;46.328;11.026;2023-05-10T05:41:02;93961.63;;;8.52;100.00
39223;BME280;24936;46.328;11.026;2023-05-10T05:43:28;93954.72;;;8.51;100.00
39223;BME280;24936;46.328;11.026;2023-05-10T05:45:54;93956.50;;;8.51;100.00
39223;BME280;24936;46.328;11.026;2023-05-10T05:48:20;93958.72;;;8.55;100.00
39223;BME280;24936;46.328;11.026;2023-05-10T05:50:45;93961.03;;;8.59;100.00
39223;BME280;24936;46.328;11.026;2023-05-10T05:53:11;93957.44;;;8.69;100.00
39223;BME280;24936;46.328;11.026;2023-05-10T05:55:37;93962.16;;;8.76;100.00
39223;BME280;24936;46.328;11.026;2023-05-10T05:58:02;93958.41;;;8.68;100.00
39223;BME280;24936;46.328;11.026;2023-05-10T06:00:28;93963.13;;;8.65;100.00
39223;BME280;24936;46.328;11.026;2023-05-10T06:02:54;93962.53;;;8.81;100.00
39223;BME280;24936;46.328;11.026;2023-05-10T06:05:19;93958.28;;;8.70;100.00
39223;BME280;24936;46.328;11.026;2023-05-10T06:07:45;93971.94;;;8.74;100.00
39223;BME280;24936;46.328;11.026;2023-05-10T06:10:11;93968.38;;;8.65;100.00
39223;BME280;24936;46.328;11.026;2023-05-10T06:12:36;93969.34;;;8.54;100.00
39223;BME280;24936;46.328;11.026;2023-05-10T06:15:03;93973.47;;;8.66;100.00
39223;BME280;24936;46.328;11.026;2023-05-10T06:17:28;93971.25;;;8.62;100.00
39223;BME280;24936;46.328;11.026;2023-05-10T06:19:54;93972.91;;;8.63;100.00
39223;BME280;24936;46.328;11.026;2023-05-10T06:22:19;93975.00;;;8.69;100.00
39223;BME280;24936;46.328;11.026;2023-05-10T06:24:46;93983.28;;;8.54;100.00
39223;BME280;24936;46.328;11.026;2023-05-10T06:27:12;93982.72;;;8.61;100.00
39223;BME280;24936;46.328;11.026;2023-05-10T06:29:37;93982.97;;;8.77;100.00
39223;BME280;24936;46.328;11.026;2023-05-10T06:32:03;93983.22;;;8.94;100.00
39223;BME280;24936;46.328;11.026;2023-05-10T06:34:28;93982.13;;;8.86;100.00
39223;BME280;24936;46.328;11.026;2023-05-10T06:36:54;93982.66;;;9.00;100.00
39223;BME280;24936;46.328;11.026;2023-05-10T06:39:19;93988.06;;;8.88;100.00
39223;BME280;24936;46.328;11.026;2023-05-10T06:41:45;93982.19;;;8.67;100.00
39223;BME280;24936;46.328;11.026;2023-05-10T06:44:10;93979.66;;;8.75;100.00
39223;BME280;24936;46.328;11.026;2023-05-10T06:46:36;93985.59;;;8.87;100.00
39223;BME280;24936;46.328;11.026;2023-05-10T06:49:01;93983.50;;;9.00;100.00
39223;BME280;24936;46.328;11.026;2023-05-10T06:51:27;93993.97;;;9.10;100.00
39223;BME280;24936;46.328;11.026;2023-05-10T06:53:52;93990.13;;;9.05;100.00
39223;BME280;24936;46.328;11.026;2023-05-10T06:56:18;93992.75;;;8.95;100.00
39223;BME280;24936;46.328;11.026;2023-05-10T06:58:47;93987.53;;;8.95;100.00
39223;BME280;24936;46.328;11.026;2023-05-10T07:01:12;93988.22;;;8.97;100.00
39223;BME280;24936;46.328;11.026;2023-05-10T07:03:38;93988.75;;;9.00;100.00
39223;BME280;24936;46.328;11.026;2023-05-10T07:06:04;93986.66;;;9.04;100.00
39223;BME280;24936;46.328;11.026;2023-05-10T07:08:30;93987.19;;;9.08;100.00
39223;BME280;24936;46.328;11.026;2023-05-10T07:11:04;93989.28;;;9.04;100.00
39223;BME280;24936;46.328;11.026;2023-05-10T07:13:33;93988.31;;;9.05;100.00
39223;BME280;24936;46.328;11.026;2023-05-10T07:16:00;93985.78;;;9.13;100.00
39223;BME280;24936;46.328;11.026;2023-05-10T07:18:27;93987.06;;;9.09;100.00
39223;BME280;24936;46.328;11.026;2023-05-10T07:20:53;93992.88;;;9.03;100.00
39223;BME280;24936;46.328;11.026;2023-05-10T07:23:18;93983.94;;;8.86;100.00
39223;BME280;24936;46.328;11.026;2023-05-10T07:25:48;93988.22;;;8.77;100.00
39223;BME280;24936;46.328;11.026;2023-05-10T07:28:14;93984.38;;;8.81;100.00
39223;BME280;24936;46.328;11.026;2023-05-10T07:30:40;93987.59;;;9.13;100.00
39223;BME280;24936;46.328;11.026;2023-05-10T07:33:05;93985.13;;;9.11;100.00
39223;BME280;24936;46.328;11.026;2023-05-10T07:35:31;93987.72;;;9.21;100.00
39223;BME280;24936;46.328;11.026;2023-05-10T07:37:56;93984.19;;;9.02;100.00
39223;BME280;24936;46.328;11.026;2023-05-10T07:40:22;93985.16;;;8.92;100.00
39223;BME280;24936;46.328;11.026;2023-05-10T07:42:47;93989.03;;;8.97;100.00
39223;BME280;24936;46.328;11.026;2023-05-10T07:45:13;93989.72;;;8.90;100.00
39223;BME280;24936;46.328;11.026;2023-05-10T07:47:38;93986.88;;;8.63;100.00
39223;BME280;24936;46.328;11.026;2023-05-10T07:50:04;93987.97;;;8.61;100.00
39223;BME280;24936;46.328;11.026;2023-05-10T07:52:30;93985.06;;;8.34;100.00
39223;BME280;24936;46.328;11.026;2023-05-10T07:54:55;93991.53;;;8.20;100.00
39223;BME280;24936;46.328;11.026;2023-05-10T07:57:22;93996.22;;;8.36;100.00
39223;BME280;24936;46.328;11.026;2023-05-10T07:59:47;93988.22;;;8.18;99.03
39223;BME280;24936;46.328;11.026;2023-05-10T08:02:13;93999.66;;;8.17;97.58
39223;BME280;24936;46.328;11.026;2023-05-10T08:04:38;94004.50;;;8.41;100.00
39223;BME280;24936;46.328;11.026;2023-05-10T08:07:04;94000.78;;;8.34;100.00
39223;BME280;24936;46.328;11.026;2023-05-10T08:09:29;93999.53;;;8.38;100.00
39223;BME280;24936;46.328;11.026;2023-05-10T08:11:55;93999.66;;;8.17;99.42
39223;BME280;24936;46.328;11.026;2023-05-10T08:14:20;93993.19;;;8.21;100.00
39223;BME280;24936;46.328;11.026;2023-05-10T08:16:46;94002.84;;;8.31;100.00
39223;BME280;24936;46.328;11.026;2023-05-10T08:19:12;94000.13;;;8.52;100.00
39223;BME280;24936;46.328;11.026;2023-05-10T08:21:37;94012.53;;;8.40;100.00
39223;BME280;24936;46.328;11.026;2023-05-10T08:24:03;94009.06;;;8.39;100.00
39223;BME280;24936;46.328;11.026;2023-05-10T08:26:29;94011.69;;;8.20;100.00
39223;BME280;24936;46.328;11.026;2023-05-10T08:28:54;94019.09;;;8.05;97.68
39223;BME280;24936;46.328;11.026;2023-05-10T08:31:19;94017.50;;;8.33;99.70
39223;BME280;24936;46.328;11.026;2023-05-10T08:33:45;94014.97;;;8.12;97.74
39223;BME280;24936;46.328;11.026;2023-05-10T08:36:11;94017.56;;;7.92;93.45
39223;BME280;24936;46.328;11.026;2023-05-10T08:38:39;94012.97;;;7.85;94.13
39223;BME280;24936;46.328;11.026;2023-05-10T08:41:05;94015.78;;;7.93;96.56
39223;BME280;24936;46.328;11.026;2023-05-10T08:43:30;94023.75;;;7.91;96.69
39223;BME280;24936;46.328;11.026;2023-05-10T08:46:00;94018.19;;;7.75;95.68
39223;BME280;24936;46.328;11.026;2023-05-10T08:48:29;94020.03;;;7.84;96.99
39223;BME280;24936;46.328;11.026;2023-05-10T08:50:58;94017.81;;;7.89;96.01
39223;BME280;24936;46.328;11.026;2023-05-10T08:53:26;94024.56;;;7.82;96.34
39223;BME280;24936;46.328;11.026;2023-05-10T08:55:52;94020.72;;;7.86;96.63
39223;BME280;24936;46.328;11.026;2023-05-10T08:58:19;94023.75;;;7.91;96.48
39223;BME280;24936;46.328;11.026;2023-05-10T09:00:45;94019.75;;;7.77;96.66
39223;BME280;24936;46.328;11.026;2023-05-10T09:03:11;94028.97;;;7.72;96.02
39223;BME280;24936;46.328;11.026;2023-05-10T09:05:38;94026.31;;;7.62;95.34
39223;BME280;24936;46.328;11.026;2023-05-10T09:08:03;94025.75;;;7.58;93.44
39223;BME280;24936;46.328;11.026;2023-05-10T09:10:29;94022.28;;;7.58;93.95
39223;BME280;24936;46.328;11.026;2023-05-10T09:12:56;94023.84;;;7.70;95.18
39223;BME280;24936;46.328;11.026;2023-05-10T09:15:21;94029.81;;;7.82;95.83
39223;BME280;24936;46.328;11.026;2023-05-10T09:17:49;94023.53;;;7.63;94.19
39223;BME280;24936;46.328;11.026;2023-05-10T09:20:15;94027.91;;;7.94;96.70
39223;BME280;24936;46.328;11.026;2023-05-10T09:22:42;94020.16;;;7.83;95.97
39223;BME280;24936;46.328;11.026;2023-05-10T09:25:12;94016.03;;;7.90;96.58
39223;BME280;24936;46.328;11.026;2023-05-10T09:27:44;94021.31;;;8.00;96.85
39223;BME280;24936;46.328;11.026;2023-05-10T09:30:15;94029.72;;;8.03;96.83
39223;BME280;24936;46.328;11.026;2023-05-10T09:32:41;94031.13;;;8.07;96.78
39223;BME280;24936;46.328;11.026;2023-05-10T09:35:11;94024.66;;;8.21;97.93
39223;BME280;24936;46.328;11.026;2023-05-10T09:37:42;94030.19;;;8.38;98.06
39223;BME280;24936;46.328;11.026;2023-05-10T09:40:11;94031.28;;;8.45;98.07
39223;BME280;24936;46.328;11.026;2023-05-10T09:42:37;94033.81;;;8.66;99.37
39223;BME280;24936;46.328;11.026;2023-05-10T09:45:06;94027.59;;;8.87;100.00
39223;BME280;24936;46.328;11.026;2023-05-10T09:47:33;94026.31;;;9.01;100.00
39223;BME280;24936;46.328;11.026;2023-05-10T09:50:00;94031.53;;;9.21;100.00
39223;BME280;24936;46.328;11.026;2023-05-10T09:52:30;94030.72;;;9.10;100.00
39223;BME280;24936;46.328;11.026;2023-05-10T09:55:10;94031.25;;;9.24;100.00
39223;BME280;24936;46.328;11.026;2023-05-10T09:57:35;94033.22;;;9.02;100.00
39223;BME280;24936;46.328;11.026;2023-05-10T10:00:01;94032.38;;;9.11;100.00
39223;BME280;24936;46.328;11.026;2023-05-10T10:02:31;94035.03;;;9.01;100.00
39223;BME280;24936;46.328;11.026;2023-05-10T10:04:56;94029.34;;;9.06;100.00
39223;BME280;24936;46.328;11.026;2023-05-10T10:07:23;94026.63;;;8.98;100.00
39223;BME280;24936;46.328;11.026;2023-05-10T10:09:51;94033.22;;;8.92;100.00
39223;BME280;24936;46.328;11.026;2023-05-10T10:12:17;94030.59;;;9.02;100.00
39223;BME280;24936;46.328;11.026;2023-05-10T10:14:43;94029.50;;;8.85;100.00
39223;BME280;24936;46.328;11.026;2023-05-10T10:17:08;94030.47;;;8.74;100.00
39223;BME280;24936;46.328;11.026;2023-05-10T10:19:35;94027.59;;;8.57;100.00
39223;BME280;24936;46.328;11.026;2023-05-10T10:22:00;94033.81;;;8.66;100.00
39223;BME280;24936;46.328;11.026;2023-05-10T10:24:26;94038.91;;;8.87;100.00
39223;BME280;24936;46.328;11.026;2023-05-10T10:26:55;94034.63;;;8.86;100.00
39223;BME280;24936;46.328;11.026;2023-05-10T10:34:47;94031.59;;;8.71;100.00
39223;BME280;24936;46.328;11.026;2023-05-10T10:37:13;94031.19;;;8.76;100.00
39223;BME280;24936;46.328;11.026;2023-05-10T10:39:38;94025.34;;;8.92;100.00
39223;BME280;24936;46.328;11.026;2023-05-10T10:42:04;94022.47;;;8.85;100.00
39223;BME280;24936;46.328;11.026;2023-05-10T10:52:35;94022.75;;;8.82;100.00
39223;BME280;24936;46.328;11.026;2023-05-10T11:00:25;94024.63;;;9.10;100.00
39223;BME280;24936;46.328;11.026;2023-05-10T11:03:04;94014.41;;;9.16;100.00
39223;BME280;24936;46.328;11.026;2023-05-10T11:15:59;94007.41;;;8.97;100.00
39223;BME280;24936;46.328;11.026;2023-05-10T11:18:27;94008.94;;;8.90;100.00
39223;BME280;24936;46.328;11.026;2023-05-10T11:20:58;94002.03;;;8.79;100.00
39223;BME280;24936;46.328;11.026;2023-05-10T11:23:32;94006.44;;;8.88;100.00
39223;BME280;24936;46.328;11.026;2023-05-10T11:26:00;94005.19;;;8.93;100.00
39223;BME280;24936;46.328;11.026;2023-05-10T11:28:28;93998.66;;;9.07;100.00
39223;BME280;24936;46.328;11.026;2023-05-10T11:30:54;93998.56;;;8.88;100.00
39223;BME280;24936;46.328;11.026;2023-05-10T11:33:19;93999.19;;;9.20;100.00
39223;BME280;24936;46.328;11.026;2023-05-10T11:35:45;93996.03;;;9.16;100.00
39223;BME280;24936;46.328;11.026;2023-05-10T11:38:12;93996.03;;;9.16;99.82
39223;BME280;24936;46.328;11.026;2023-05-10T11:40:40;93994.94;;;9.19;99.11
39223;BME280;24936;46.328;11.026;2023-05-10T11:43:06;93991.72;;;9.25;99.02
39223;BME280;24936;46.328;11.026;2023-05-10T11:45:34;93991.78;;;9.43;99.10
39223;BME280;24936;46.328;11.026;2023-05-10T11:48:01;94008.59;;;9.23;98.57
39223;BME280;24936;46.328;11.026;2023-05-10T11:50:27;94000.44;;;9.26;98.39
39223;BME280;24936;46.328;11.026;2023-05-10T11:52:53;93998.13;;;9.03;98.88
39223;BME280;24936;46.328;11.026;2023-05-10T11:55:19;93993.72;;;9.03;99.24
39223;BME280;24936;46.328;11.026;2023-05-10T11:57:45;94007.69;;;8.45;96.10
39223;BME280;24936;46.328;11.026;2023-05-10T12:00:11;93991.56;;;8.60;98.03
39223;BME280;24936;46.328;11.026;2023-05-10T12:02:37;94003.41;;;8.44;98.16
39223;BME280;24936;46.328;11.026;2023-05-10T12:05:04;94006.03;;;8.24;97.60
39223;BME280;24936;46.328;11.026;2023-05-10T12:07:30;94004.22;;;8.35;97.41
39223;BME280;24936;46.328;11.026;2023-05-10T12:12:43;94003.81;;;8.30;97.32
39223;BME280;24936;46.328;11.026;2023-05-10T12:15:22;94004.50;;;8.32;99.03
39223;BME280;24936;46.328;11.026;2023-05-10T12:17:48;94011.13;;;8.26;98.72
39223;BME280;24936;46.328;11.026;2023-05-10T12:22:45;94011.38;;;8.03;95.96
39223;BME280;24936;46.328;11.026;2023-05-10T12:25:11;94012.06;;;8.05;97.18
39223;BME280;24936;46.328;11.026;2023-05-10T12:27:37;94019.66;;;8.08;98.28
39223;BME280;24936;46.328;11.026;2023-05-10T12:30:03;94021.84;;;7.93;97.21
39223;BME280;24936;46.328;11.026;2023-05-10T12:32:39;94025.72;;;7.99;98.35
39223;BME280;24936;46.328;11.026;2023-05-10T12:35:05;94018.16;;;8.16;98.95
39223;BME280;24936;46.328;11.026;2023-05-10T12:37:30;94023.72;;;7.81;97.14
39223;BME280;24936;46.328;11.026;2023-05-10T12:39:57;94021.00;;;7.83;97.29
39223;BME280;24936;46.328;11.026;2023-05-10T12:42:22;94032.06;;;7.96;96.96
39223;BME280;24936;46.328;11.026;2023-05-10T12:44:55;94029.44;;;7.96;97.72
39223;BME280;24936;46.328;11.026;2023-05-10T12:47:21;94032.28;;;7.84;96.67
39223;BME280;24936;46.328;11.026;2023-05-10T12:49:46;94033.13;;;7.84;97.35
39223;BME280;24936;46.328;11.026;2023-05-10T12:52:12;94037.78;;;7.80;97.33
39223;BME280;24936;46.328;11.026;2023-05-10T12:54:37;94039.34;;;7.83;96.18
39223;BME280;24936;46.328;11.026;2023-05-10T12:57:02;94037.66;;;7.82;94.77
39223;BME280;24936;46.328;11.026;2023-05-10T12:59:28;94031.59;;;7.81;97.09
39223;BME280;24936;46.328;11.026;2023-05-10T13:01:53;94028.81;;;7.73;97.30
39223;BME280;24936;46.328;11.026;2023-05-10T13:04:19;94024.63;;;7.61;97.18
39223;BME280;24936;46.328;11.026;2023-05-10T13:06:44;94031.00;;;7.68;97.75
39223;BME280;24936;46.328;11.026;2023-05-10T13:09:10;94022.72;;;7.63;96.95
39223;BME280;24936;46.328;11.026;2023-05-10T13:11:35;94022.66;;;7.84;98.17
39223;BME280;24936;46.328;11.026;2023-05-10T13:14:01;94019.84;;;7.66;97.19
39223;BME280;24936;46.328;11.026;2023-05-10T13:16:28;94023.97;;;7.69;97.75
39223;BME280;24936;46.328;11.026;2023-05-10T13:18:53;94020.88;;;7.54;97.03
39223;BME280;24936;46.328;11.026;2023-05-10T13:21:19;94021.84;;;7.53;95.86
39223;BME280;24936;46.328;11.026;2023-05-10T13:23:44;94019.63;;;7.48;95.95
39223;BME280;24936;46.328;11.026;2023-05-10T13:26:11;94015.88;;;7.41;96.28
39223;BME280;24936;46.328;11.026;2023-05-10T13:28:37;94024.00;;;7.38;95.76
39223;BME280;24936;46.328;11.026;2023-05-10T13:31:04;94009.50;;;7.33;96.97
39223;BME280;24936;46.328;11.026;2023-05-10T13:33:30;94013.78;;;7.34;94.47
39223;BME280;24936;46.328;11.026;2023-05-10T13:35:55;94010.84;;;7.28;95.35
39223;BME280;24936;46.328;11.026;2023-05-10T13:38:21;94014.44;;;7.27;96.14
39223;BME280;24936;46.328;11.026;2023-05-10T13:40:46;94013.06;;;7.32;96.45
39223;BME280;24936;46.328;11.026;2023-05-10T13:43:12;94010.53;;;7.21;94.38